Time;durP1;ratioP1;P1;durP2;ratioP2;P2;SDS_P1;SDS_P2;PMS_P1;PMS_P2;Temp;Humidity;BMP_temperature;BMP_pressure;BME280_temperature;BME280_humidity;BME280_pressure;Samples;Min_cycle;Max_cycle;Signal;HPM_P1;HPM_P2
2022/04/29 00:00:38;;;;;;;35.92;21.87;;;;;;;5.34;87.60;99126.42;1770522;81;20980;-81
2022/04/29 00:03:09;;;;;;;35.30;22.45;;;;;;;5.31;84.98;99122.84;1740347;82;22185;-81
2022/04/29 00:05:36;;;;;;;36.17;20.43;;;;;;;5.21;87.95;99121.98;1749782;82;21082;-85
2022/04/29 00:08:03;;;;;;;34.18;19.67;;;;;;;5.19;85.59;99123.22;1739602;82;21060;-85
2022/04/29 00:10:29;;;;;;;32.48;20.05;;;;;;;5.09;86.23;99123.19;1732041;82;21007;-85
2022/04/29 00:12:55;;;;;;;34.05;20.48;;;;;;;5.03;87.88;99124.57;1718049;82;20884;-80
2022/04/29 00:15:21;;;;;;;33.83;19.98;;;;;;;4.88;86.89;99120.05;1745657;81;20888;-80
2022/04/29 00:17:47;;;;;;;33.92;21.40;;;;;;;4.88;86.89;99120.05;1772810;80;21268;-80
2022/04/29 00:20:14;;;;;;;32.90;20.17;;;;;;;4.84;86.60;99122.84;1772521;81;21472;-80
2022/04/29 00:22:40;;;;;;;34.67;20.57;;;;;;;4.75;85.47;99124.95;1772657;81;21047;-80
2022/04/29 00:25:08;;;;;;;35.63;20.60;;;;;;;4.67;84.16;99131.39;1772768;80;21001;-85
2022/04/29 00:27:34;;;;;;;31.55;19.02;;;;;;;4.59;84.59;99128.13;1760664;81;21005;-80
2022/04/29 00:30:01;;;;;;;50.60;22.02;;;;;;;4.51;83.45;99132.70;1742073;82;21109;-86
2022/04/29 00:32:26;;;;;;;37.95;20.05;;;;;;;4.42;87.98;99125.11;1742011;82;21055;-86
2022/04/29 00:34:52;;;;;;;31.40;20.88;;;;;;;4.42;86.12;99121.91;1742114;82;20900;-85
2022/04/29 00:37:18;;;;;;;36.10;20.50;;;;;;;4.39;85.46;99135.77;1742195;82;20868;-80
2022/04/29 00:39:45;;;;;;;31.82;20.57;;;;;;;4.28;87.61;99117.65;1742172;82;20971;-85
2022/04/29 00:42:16;;;;;;;36.15;20.82;;;;;;;4.30;89.19;99126.83;1742196;82;21105;-80
2022/04/29 00:44:44;;;;;;;38.67;20.37;;;;;;;4.31;87.22;99127.13;1742130;82;21002;-80
2022/04/29 00:47:12;;;;;;;34.53;21.62;;;;;;;4.23;85.88;99121.48;1742164;82;21078;-85
2022/04/29 00:49:38;;;;;;;30.48;18.77;;;;;;;4.12;85.97;99122.97;1742233;82;21023;-80
2022/04/29 00:52:12;;;;;;;34.45;20.00;;;;;;;4.04;86.54;99123.20;1748558;80;20998;-84
2022/04/29 00:54:39;;;;;;;30.23;17.12;;;;;;;3.99;89.27;99126.19;1731720;80;21265;-85
2022/04/29 00:57:11;;;;;;;31.07;18.48;;;;;;;4.01;87.32;99120.09;1739859;82;20990;-81
2022/04/29 01:00:01;;;;;;;31.60;18.75;;;;;;;3.97;85.79;99118.36;1732879;81;21268;-85
2022/04/29 01:02:27;;;;;;;30.97;18.27;;;;;;;3.90;86.71;99115.69;1772316;80;21009;-80
2022/04/29 01:04:59;;;;;;;30.15;18.20;;;;;;;3.88;87.62;99112.92;1753528;81;21640;-85
2022/04/29 01:07:28;;;;;;;36.05;19.07;;;;;;;3.86;89.86;99117.16;1742059;82;21069;-81
2022/04/29 01:09:54;;;;;;;30.92;18.42;;;;;;;3.85;92.07;99120.05;1741986;82;21455;-80
2022/04/29 01:12:20;;;;;;;32.05;18.15;;;;;;;3.89;92.08;99114.56;1719075;82;21086;-80
2022/04/29 01:14:46;;;;;;;28.95;16.75;;;;;;;3.90;91.85;99116.20;1760675;81;20898;-80
2022/04/29 01:17:12;;;;;;;29.32;18.55;;;;;;;3.90;92.28;99110.84;1772797;80;20882;-85
2022/04/29 01:19:39;;;;;;;33.33;17.48;;;;;;;3.91;91.37;99108.46;1755879;81;21482;-85
2022/04/29 01:22:05;;;;;;;30.82;18.65;;;;;;;3.92;89.82;99108.77;1767887;80;20974;-79
2022/04/29 01:24:30;;;;;;;35.75;20.27;;;;;;;3.87;91.92;99104.05;1772519;80;21039;-85
2022/04/29 01:26:56;;;;;;;38.02;19.75;;;;;;;3.85;88.53;99101.28;1772607;81;20885;-80
2022/04/29 01:29:23;;;;;;;30.60;18.60;;;;;;;3.80;87.61;99105.91;1772352;81;21024;-80
2022/04/29 01:31:50;;;;;;;31.10;17.90;;;;;;;3.75;88.39;99104.89;1772576;80;21136;-84
2022/04/29 01:34:16;;;;;;;33.75;16.40;;;;;;;3.69;89.29;99101.20;1747978;81;21581;-80
2022/04/29 01:36:42;;;;;;;26.17;15.35;;;;;;;3.68;87.63;99096.88;1742184;82;20963;-85
2022/04/29 01:39:08;;;;;;;24.18;15.15;;;;;;;3.64;87.67;99097.80;1742027;82;20943;-85
2022/04/29 01:41:34;;;;;;;27.65;16.82;;;;;;;3.50;88.09;99100.69;1742203;82;22630;-85
2022/04/29 01:44:00;;;;;;;29.63;17.45;;;;;;;3.50;88.09;99100.69;1763649;80;21618;-80
2022/04/29 01:46:26;;;;;;;31.90;17.00;;;;;;;3.45;87.86;99097.31;1772827;80;20882;-80
2022/04/29 01:48:52;;;;;;;36.60;18.85;;;;;;;3.47;87.81;99094.42;1772896;81;20886;-80
2022/04/29 01:51:17;;;;;;;41.08;18.45;;;;;;;3.47;88.60;99099.78;1772164;81;20851;-85
2022/04/29 01:53:43;;;;;;;28.25;17.35;;;;;;;3.49;88.42;99094.51;1740343;80;20978;-80
2022/04/29 01:56:09;;;;;;;32.63;19.60;;;;;;;3.44;87.37;99089.48;1725088;82;21947;-85
2022/04/29 01:58:35;;;;;;;33.23;19.67;;;;;;;3.43;89.41;99090.00;1739852;81;20919;-85
2022/04/29 02:01:01;;;;;;;30.48;18.30;;;;;;;3.44;89.69;99092.16;1739928;81;20871;-81
2022/04/29 02:03:27;;;;;;;31.93;17.98;;;;;;;3.41;88.65;99093.37;1752647;81;21598;-86
2022/04/29 02:05:53;;;;;;;26.27;16.15;;;;;;;3.41;88.39;99094.72;1699303;82;20891;-85
2022/04/29 02:08:19;;;;;;;32.80;19.15;;;;;;;3.39;89.95;99100.81;1795903;79;21797;-80
2022/04/29 02:10:45;;;;;;;34.33;19.70;;;;;;;3.36;89.51;99092.68;1796527;79;20866;-86
2022/04/29 02:13:10;;;;;;;31.55;17.17;;;;;;;3.34;90.98;99092.59;1796234;79;20846;-80
2022/04/29 02:15:36;;;;;;;29.48;17.92;;;;;;;3.30;90.46;99090.00;1796326;79;20867;-80
2022/04/29 02:18:03;;;;;;;26.37;16.45;;;;;;;3.24;90.88;99086.28;1795698;79;20914;-81
2022/04/29 02:20:28;;;;;;;29.98;16.90;;;;;;;3.24;89.77;99094.83;1796773;79;21091;-80
2022/04/29 02:22:54;;;;;;;31.17;16.50;;;;;;;3.19;88.10;99087.95;1795863;79;20878;-85
2022/04/29 02:25:20;;;;;;;28.38;17.57;;;;;;;3.14;89.92;99091.75;1796791;79;20858;-81
2022/04/29 02:27:46;;;;;;;30.62;16.70;;;;;;;3.10;91.01;99085.47;1796780;79;20924;-80
2022/04/29 02:30:13;;;;;;;27.35;17.65;;;;;;;3.11;91.15;99087.11;1797008;79;20973;-80
2022/04/29 02:32:39;;;;;;;29.90;17.05;;;;;;;3.09;90.72;99082.48;1796469;78;21111;-86
2022/04/29 02:35:05;;;;;;;25.65;16.30;;;;;;;3.03;88.21;99082.48;1818749;78;21583;-86
2022/04/29 02:37:32;;;;;;;26.42;15.43;;;;;;;3.03;88.21;99082.48;1831357;78;21426;-86
2022/04/29 02:39:58;;;;;;;24.85;17.62;;;;;;;2.94;88.23;99081.86;1825491;78;21015;-80
2022/04/29 02:42:24;;;;;;;29.60;17.23;;;;;;;2.91;88.22;99082.27;1800671;78;21576;-80
2022/04/29 02:44:50;;;;;;;26.45;17.05;;;;;;;2.86;89.94;99071.86;1799058;79;20933;-85
2022/04/29 02:47:16;;;;;;;28.73;17.00;;;;;;;2.86;89.52;99080.71;1799099;79;20864;-80
2022/04/29 02:49:45;;;;;;;26.60;16.75;;;;;;;2.86;90.46;99072.68;1799359;78;21009;-80
2022/04/29 02:52:12;;;;;;;;;;;;;;;2.87;89.12;99073.50;1806018;78;21032;-80
2022/04/29 02:54:38;;;;;;;31.30;16.40;;;;;;;2.83;89.76;99084.63;1783522;79;20170;-81
2022/04/29 02:57:04;;;;;;;31.57;17.23;;;;;;;2.80;91.31;99080.18;1799411;78;21533;-80
2022/04/29 02:59:30;;;;;;;29.00;17.17;;;;;;;2.77;91.69;99086.77;1799616;78;21006;-80
2022/04/29 03:01:56;;;;;;;27.73;16.23;;;;;;;2.76;92.54;99085.13;1801163;78;21017;-80
2022/04/29 03:04:22;;;;;;;27.98;16.70;;;;;;;2.75;90.08;99084.00;1787594;79;21181;-85
2022/04/29 03:06:48;;;;;;;31.30;17.40;;;;;;;2.72;90.95;99085.72;1799013;79;20999;-80
2022/04/29 03:09:14;;;;;;;35.65;17.85;;;;;;;2.73;91.19;99090.87;1799409;79;22011;-85
2022/04/29 03:11:40;;;;;;;27.65;16.00;;;;;;;2.77;90.54;99087.29;1799107;79;20864;-85
2022/04/29 03:14:06;;;;;;;41.18;15.98;;;;;;;2.76;89.90;99096.35;1799619;79;20931;-80
2022/04/29 03:16:32;;;;;;;42.73;19.10;;;;;;;2.71;88.58;99090.25;1798351;79;20856;-85
2022/04/29 03:18:58;;;;;;;29.40;19.17;;;;;;;2.60;90.92;99087.36;1799376;79;21014;-84
2022/04/29 03:21:24;;;;;;;31.80;17.62;;;;;;;2.60;90.92;99087.36;1799083;79;21567;-85
2022/04/29 03:23:50;;;;;;;29.37;18.45;;;;;;;2.57;92.05;99095.80;1799051;79;21062;-85
2022/04/29 03:26:16;;;;;;;32.33;18.20;;;;;;;2.51;91.22;99095.57;1799167;79;20942;-85
2022/04/29 03:28:42;;;;;;;29.90;18.07;;;;;;;2.49;90.80;99098.97;1799201;79;20851;-85
2022/04/29 03:31:08;;;;;;;38.90;18.30;;;;;;;2.47;90.02;99103.67;1799913;79;20950;-85
2022/04/29 03:33:34;;;;;;;32.88;17.15;;;;;;;2.43;88.97;99102.44;1802007;78;22003;-79
2022/04/29 03:36:00;;;;;;;29.72;18.17;;;;;;;2.34;88.56;99104.16;1831291;78;21002;-85
2022/04/29 03:38:26;;;;;;;32.00;18.60;;;;;;;2.33;89.71;99099.32;1831611;78;20898;-80
2022/04/29 03:40:53;;;;;;;32.10;17.42;;;;;;;2.36;90.87;99099.42;1807504;77;20997;-85
2022/04/29 03:43:19;;;;;;;33.65;18.55;;;;;;;2.39;91.34;99103.84;1782971;79;21492;-85
2022/04/29 03:45:45;;;;;;;26.20;17.12;;;;;;;2.41;91.34;99102.34;1791892;79;21086;-80
2022/04/29 03:48:11;;;;;;;30.17;16.60;;;;;;;2.43;91.22;99105.62;1794193;79;22057;-85
2022/04/29 03:50:38;;;;;;;27.67;16.00;;;;;;;2.44;92.06;99105.42;1802386;79;20968;-81
2022/04/29 03:53:04;;;;;;;26.12;15.98;;;;;;;2.49;91.39;99112.34;1806936;78;21508;-80
2022/04/29 03:55:32;;;;;;;30.05;17.50;;;;;;;2.53;90.69;99113.58;1745434;80;21057;-80
2022/04/29 03:57:58;;;;;;;26.87;17.92;;;;;;;2.56;89.58;99113.68;1767412;80;21301;-80
2022/04/29 04:00:26;;;;;;;29.65;17.17;;;;;;;2.52;90.59;99114.61;1766961;81;21029;-80
2022/04/29 04:02:52;;;;;;;33.05;18.57;;;;;;;2.56;90.48;99115.02;1765410;80;22853;-85
2022/04/29 04:05:18;;;;;;;30.70;17.00;;;;;;;2.58;91.49;99113.50;1757309;79;21924;-84
2022/04/29 04:07:45;;;;;;;30.90;17.15;;;;;;;2.62;91.44;99111.55;1776450;78;21541;-85
2022/04/29 04:10:11;;;;;;;32.03;18.25;;;;;;;2.64;91.11;99121.52;1759164;79;21596;-84
2022/04/29 04:12:51;;;;;;;30.50;17.62;;;;;;;2.68;91.45;99114.76;1782896;78;21024;-84
2022/04/29 04:15:20;;;;;;;29.23;16.50;;;;;;;2.76;92.19;99121.78;1791433;76;21135;-84
2022/04/29 04:17:46;;;;;;;29.35;16.67;;;;;;;2.86;90.44;99119.53;1792814;78;21152;-84
2022/04/29 04:20:13;;;;;;;26.12;16.15;;;;;;;2.92;90.94;99120.06;1800526;78;21198;-84
2022/04/29 04:22:39;;;;;;;27.77;17.48;;;;;;;2.99;91.68;99114.70;1799747;78;21758;-84
2022/04/29 04:25:10;;;;;;;27.13;16.67;;;;;;;3.07;90.02;99107.28;1798662;76;20851;-85
2022/04/29 04:27:36;;;;;;;37.33;20.75;;;;;;;3.10;89.79;99117.61;1781532;78;21033;-83
2022/04/29 04:30:03;;;;;;;41.23;23.35;;;;;;;3.09;91.10;99117.30;1797429;79;20994;-84
2022/04/29 04:32:29;;;;;;;37.73;22.35;;;;;;;3.20;90.42;99127.91;1789276;79;21486;-85
2022/04/29 04:34:57;;;;;;;38.28;23.15;;;;;;;3.23;90.54;99115.95;1785347;78;21130;-85
2022/04/29 04:37:24;;;;;;;41.88;23.70;;;;;;;3.33;90.04;99132.44;1797418;78;20979;-79
2022/04/29 04:39:51;;;;;;;35.80;22.13;;;;;;;3.39;90.72;99128.42;1769824;79;21084;-80
2022/04/29 04:42:17;;;;;;;39.05;22.85;;;;;;;3.47;91.25;99132.76;1802344;79;20991;-80
2022/04/29 04:44:47;;;;;;;30.82;20.20;;;;;;;3.63;90.48;99127.50;1787851;78;21021;-80
2022/04/29 04:47:12;;;;;;;;;;;;;;;3.79;90.31;99131.08;1796764;78;21157;-80
2022/04/29 04:49:38;;;;;;;41.98;23.87;;;;;;;3.83;91.13;99133.64;1783990;77;20239;-80
2022/04/29 04:52:05;;;;;;;39.92;23.60;;;;;;;3.98;90.62;99132.59;1796561;77;20900;-80
2022/04/29 04:54:31;;;;;;;38.50;20.23;;;;;;;4.03;90.32;99137.64;1789315;78;20952;-85
2022/04/29 04:56:57;;;;;;;41.98;21.35;;;;;;;4.17;90.25;99135.20;1793470;78;21053;-85
2022/04/29 04:59:23;;;;;;;44.18;22.45;;;;;;;4.35;89.63;99133.19;1801959;78;22906;-84
2022/04/29 05:01:49;;;;;;;30.75;19.17;;;;;;;4.52;89.62;99137.55;1788415;79;21125;-85
2022/04/29 05:04:15;;;;;;;40.48;19.50;;;;;;;4.67;89.52;99134.59;1790779;78;21576;-84
2022/04/29 05:06:41;;;;;;;30.50;18.30;;;;;;;4.80;88.86;99131.86;1793570;78;20836;-85
2022/04/29 05:09:08;;;;;;;26.75;16.85;;;;;;;4.94;88.82;99137.44;1793918;77;21565;-85
2022/04/29 05:11:34;;;;;;;28.32;17.42;;;;;;;5.00;87.77;99133.07;1791855;78;21138;-86
2022/04/29 05:13:59;;;;;;;27.55;17.27;;;;;;;4.97;88.06;99140.23;1770364;78;20906;-85
2022/04/29 05:16:25;;;;;;;30.25;17.23;;;;;;;5.02;88.17;99140.39;1799557;79;20883;-85
2022/04/29 05:18:51;;;;;;;29.42;17.57;;;;;;;5.12;87.91;99136.70;1804569;78;21497;-85
2022/04/29 05:21:17;;;;;;;26.68;15.25;;;;;;;5.23;88.19;99140.05;1820059;78;20871;-86
2022/04/29 05:23:43;;;;;;;30.80;17.73;;;;;;;5.32;88.20;99134.70;1796780;78;21296;-85
2022/04/29 05:26:09;;;;;;;30.97;17.60;;;;;;;5.46;88.11;99141.31;1801967;78;20911;-80
2022/04/29 05:28:35;;;;;;;40.05;19.67;;;;;;;5.75;88.37;99141.18;1784485;78;20962;-80
2022/04/29 05:31:02;;;;;;;39.03;20.72;;;;;;;5.75;88.37;99141.18;1814283;76;21112;-80
2022/04/29 05:33:28;;;;;;;39.85;21.20;;;;;;;5.91;88.03;99141.47;1807395;78;21018;-81
2022/04/29 05:35:54;;;;;;;31.33;17.52;;;;;;;6.08;87.70;99140.88;1803376;78;21339;-86
2022/04/29 05:38:20;;;;;;;25.82;16.95;;;;;;;6.12;87.26;99139.37;1768999;79;20942;-85
2022/04/29 05:43:30;;;;;;;27.37;17.27;;;;;;;6.41;86.84;99137.30;1810837;77;21392;-86
2022/04/29 05:45:56;;;;;;;33.02;19.65;;;;;;;6.59;86.46;99142.37;1799459;78;20927;-86
2022/04/29 05:48:22;;;;;;;30.15;15.72;;;;;;;6.80;86.21;99129.75;1797803;77;21233;-86
2022/04/29 05:50:48;;;;;;;26.40;15.32;;;;;;;6.95;85.17;99127.99;1781322;79;20905;-85
2022/04/29 05:53:15;;;;;;;40.35;17.07;;;;;;;7.13;84.71;99132.50;1796696;78;21123;-85
2022/04/29 05:55:42;;;;;;;24.70;14.90;;;;;;;7.32;84.44;99134.88;1784214;78;21524;-85
2022/04/29 05:58:08;;;;;;;29.37;16.57;;;;;;;7.52;84.17;99137.78;1793530;77;21596;-86
2022/04/29 06:00:34;;;;;;;23.52;16.23;;;;;;;7.74;83.73;99138.86;1803657;78;21090;-86
2022/04/29 06:03:00;;;;;;;24.40;15.20;;;;;;;7.97;83.47;99134.01;1794373;78;21081;-86
2022/04/29 06:05:27;;;;;;;25.77;14.55;;;;;;;8.08;82.88;99140.45;1804719;78;20871;-86
2022/04/29 06:07:53;;;;;;;30.77;15.45;;;;;;;8.23;82.37;99142.14;1804531;78;21080;-86
2022/04/29 06:10:19;;;;;;;22.35;14.58;;;;;;;8.45;82.06;99142.34;1818172;78;21493;-85
2022/04/29 06:12:45;;;;;;;22.80;14.95;;;;;;;8.55;78.25;99146.63;1803558;78;21719;-86
2022/04/29 06:15:16;;;;;;;34.80;19.48;;;;;;;8.82;79.52;99146.89;1829285;78;20942;-86
2022/04/29 06:17:43;;;;;;;33.28;17.87;;;;;;;9.09;77.38;99146.31;1829734;78;21358;-86
2022/04/29 06:20:10;;;;;;;33.83;17.65;;;;;;;9.42;76.79;99146.89;1779477;78;21440;-85
2022/04/29 06:22:44;;;;;;;24.70;14.23;;;;;;;9.80;78.03;99144.80;1796492;78;21003;-85
2022/04/29 06:25:10;;;;;;;21.52;15.18;;;;;;;10.07;77.92;99143.03;1796803;78;21131;-85
2022/04/29 06:27:36;;;;;;;23.67;14.68;;;;;;;10.14;75.44;99145.57;1800379;78;20887;-85
2022/04/29 06:30:03;;;;;;;26.48;17.25;;;;;;;10.02;72.53;99148.92;1829875;78;20965;-85
2022/04/29 06:32:29;;;;;;;33.02;16.52;;;;;;;10.09;73.98;99148.23;1829067;78;21014;-85
2022/04/29 06:34:55;;;;;;;25.60;14.98;;;;;;;10.13;73.25;99148.81;1829604;78;20919;-80
2022/04/29 06:37:21;;;;;;;21.50;15.35;;;;;;;10.19;73.91;99147.01;1795129;77;21295;-80
2022/04/29 06:39:47;;;;;;;23.12;16.45;;;;;;;10.36;75.04;99151.88;1799926;77;21095;-80
2022/04/29 06:42:13;;;;;;;23.10;14.25;;;;;;;10.59;75.20;99148.63;1801731;78;20965;-80
2022/04/29 06:44:39;;;;;;;23.60;15.90;;;;;;;10.74;72.93;99150.98;1799073;78;21524;-80
2022/04/29 06:47:05;;;;;;;24.82;15.28;;;;;;;10.70;71.51;99145.81;1790903;78;20906;-80
2022/04/29 06:49:31;;;;;;;25.15;16.52;;;;;;;10.79;73.42;99144.00;1828901;76;21150;-80
2022/04/29 06:51:58;;;;;;;24.23;15.90;;;;;;;10.94;73.73;99149.07;1796509;76;21067;-80
2022/04/29 06:54:24;;;;;;;24.27;15.32;;;;;;;11.16;73.83;99151.72;1783024;79;21034;-79
2022/04/29 06:56:50;;;;;;;24.23;15.98;;;;;;;11.43;72.17;99145.46;1779942;77;21554;-80
2022/04/29 06:59:16;;;;;;;32.13;16.73;;;;;;;11.71;72.69;99147.08;1796494;78;20965;-80
2022/04/29 07:01:42;;;;;;;27.98;15.93;;;;;;;11.83;72.26;99143.66;1811047;76;21226;-80
2022/04/29 07:04:07;;;;;;;28.95;17.17;;;;;;;11.84;68.99;99143.39;1817407;76;20953;-80
2022/04/29 07:06:33;;;;;;;32.98;16.30;;;;;;;12.04;71.44;99153.56;1807621;76;20874;-80
2022/04/29 07:09:02;;;;;;;24.35;16.10;;;;;;;12.03;68.08;99151.12;1796275;76;21567;-81
2022/04/29 07:11:29;;;;;;;20.82;15.70;;;;;;;12.13;68.83;99153.89;1811766;76;21040;-81
2022/04/29 07:13:55;;;;;;;26.75;14.75;;;;;;;12.16;68.83;99150.67;1797033;76;21946;-80
2022/04/29 07:16:21;;;;;;;26.65;14.53;;;;;;;12.23;68.66;99150.45;1783663;78;21674;-81
2022/04/29 07:18:47;;;;;;;25.92;15.68;;;;;;;12.30;68.37;99149.11;1784732;78;20854;-80
2022/04/29 07:21:12;;;;;;;24.92;15.48;;;;;;;12.43;68.96;99153.27;1758002;78;21011;-86
2022/04/29 07:23:38;;;;;;;23.47;16.67;;;;;;;12.59;68.72;99159.60;1793399;78;20895;-86
2022/04/29 07:26:04;;;;;;;22.80;15.32;;;;;;;12.72;68.73;99159.09;1794229;77;21221;-85
2022/04/29 07:28:30;;;;;;;25.77;15.23;;;;;;;12.93;68.26;99153.20;1795490;78;20887;-86
2022/04/29 07:30:57;;;;;;;23.75;16.20;;;;;;;13.04;67.42;99159.48;1807101;78;21013;-86
2022/04/29 07:33:23;;;;;;;22.05;15.38;;;;;;;13.16;66.76;99162.25;1793543;77;20992;-87
2022/04/29 07:44:03;;;;;;;22.90;15.45;;;;;;;13.98;61.02;99150.06;1796608;76;21116;-81
2022/04/29 07:46:29;;;;;;;25.00;18.82;;;;;;;14.68;62.88;99152.36;1817072;77;20957;-81
2022/04/29 07:48:54;;;;;;;42.13;27.25;;;;;;;14.98;63.10;99148.69;1792557;77;20965;-81
2022/04/29 07:51:20;;;;;;;68.92;46.83;;;;;;;15.07;57.85;99150.28;1789093;78;21937;-81
2022/04/29 07:53:46;;;;;;;39.67;24.63;;;;;;;15.38;55.85;99149.52;1798315;78;20885;-81
2022/04/29 07:56:12;;;;;;;19.82;14.85;;;;;;;15.69;51.51;99147.42;1768604;78;20860;-81
2022/04/29 07:58:38;;;;;;;20.88;14.13;;;;;;;15.51;50.71;99151.08;1779488;78;20856;-81
2022/04/29 08:01:06;;;;;;;18.37;14.18;;;;;;;15.19;50.52;99153.47;1761290;78;21044;-80
2022/04/29 08:03:32;;;;;;;19.82;14.13;;;;;;;15.17;53.04;99155.67;1759210;78;41318;-81
2022/04/29 08:05:58;;;;;;;20.32;13.00;;;;;;;15.40;54.45;99150.08;1782535;78;20931;-80
2022/04/29 08:08:24;;;;;;;19.82;13.08;;;;;;;15.24;50.79;99158.36;1784526;78;21464;-81
2022/04/29 08:10:50;;;;;;;21.23;14.25;;;;;;;14.71;49.11;99155.91;1771645;80;20930;-87
2022/04/29 08:13:16;;;;;;;20.30;13.00;;;;;;;15.02;49.63;99153.84;1782007;78;20875;-87
2022/04/29 08:15:44;;;;;;;16.87;11.48;;;;;;;16.10;46.92;99145.14;1820872;76;21140;-87
2022/04/29 08:18:10;;;;;;;21.20;12.30;;;;;;;16.77;45.30;99144.70;1790407;78;21084;-87
2022/04/29 08:20:36;;;;;;;18.70;11.78;;;;;;;16.85;43.25;99139.13;1744199;79;20907;-87
2022/04/29 08:23:02;;;;;;;12.28;9.53;;;;;;;18.03;40.88;99138.44;1779344;78;20939;-86
2022/04/29 08:25:28;;;;;;;17.77;12.05;;;;;;;19.06;40.22;99138.63;1786199;78;20891;-87
2022/04/29 08:27:54;;;;;;;17.92;10.90;;;;;;;19.28;39.45;99135.92;1787599;78;21684;-88
2022/04/29 08:30:20;;;;;;;15.40;10.18;;;;;;;18.28;36.60;99131.65;1788587;78;20931;-87
2022/04/29 08:32:47;;;;;;;17.80;9.75;;;;;;;18.96;37.49;99141.02;1793254;78;20903;-88
2022/04/29 08:35:13;;;;;;;13.65;9.45;;;;;;;18.89;38.51;99129.66;1785445;78;21061;-86
2022/04/29 08:37:40;;;;;;;15.28;9.13;;;;;;;18.98;38.11;99130.56;1773364;78;21077;-88
2022/04/29 08:40:07;;;;;;;13.40;9.68;;;;;;;18.61;38.12;99128.81;1780451;78;21383;-87
2022/04/29 08:42:37;;;;;;;11.45;7.42;;;;;;;17.69;37.08;99131.05;1765044;78;21501;-87
2022/04/29 08:45:10;;;;;;;14.53;8.85;;;;;;;17.35;38.62;99128.02;1793510;78;21029;-87
2022/04/29 08:47:40;;;;;;;12.63;8.35;;;;;;;17.50;38.03;99125.58;1733646;81;21156;-87
2022/04/29 08:50:08;;;;;;;13.43;7.58;;;;;;;17.97;37.62;99125.12;1737755;80;21121;-86
2022/04/29 08:52:35;;;;;;;17.90;8.95;;;;;;;17.34;38.14;99119.52;1736678;79;21152;-86
2022/04/29 09:00:38;;;;;;;13.28;8.80;;;;;;;16.62;36.87;99123.77;1744740;80;21091;-87
2022/04/29 09:03:02;;;;;;;13.37;7.60;;;;;;;16.54;37.49;99122.23;1729801;81;22144;-86
2022/04/29 09:05:28;;;;;;;13.00;6.87;;;;;;;17.08;36.21;99116.34;1724189;81;21421;-86
2022/04/29 09:08:02;;;;;;;13.00;7.58;;;;;;;17.11;36.05;99116.33;1763187;78;22443;-87
2022/04/29 09:10:36;;;;;;;14.95;8.20;;;;;;;18.45;36.59;99113.77;1776029;80;21332;-86
2022/04/29 09:13:14;;;;;;;11.48;7.55;;;;;;;18.65;35.04;99111.20;1784905;78;21062;-87
2022/04/29 09:15:54;;;;;;;14.15;7.00;;;;;;;18.85;33.66;99114.91;1762722;79;21221;-88
2022/04/29 09:18:39;;;;;;;11.22;5.55;;;;;;;18.94;34.65;99109.50;1779862;78;21101;-88
2022/04/29 09:21:14;;;;;;;7.90;5.83;;;;;;;20.99;32.55;99111.61;1785129;78;21082;-87
2022/04/29 09:23:45;;;;;;;9.63;6.42;;;;;;;21.30;29.89;99103.83;1785069;78;21111;-86
2022/04/29 09:26:28;;;;;;;12.05;7.03;;;;;;;20.45;29.64;99108.25;1774000;78;21483;-87
2022/04/29 09:28:57;;;;;;;11.12;5.60;;;;;;;21.08;30.92;99110.25;1786175;78;21001;-81
2022/04/29 09:31:23;;;;;;;8.85;5.65;;;;;;;22.66;28.28;99097.48;1779986;78;21110;-82
2022/04/29 09:33:58;;;;;;;13.45;5.30;;;;;;;25.02;26.85;99073.44;1754265;78;20935;-86
2022/04/29 09:36:26;;;;;;;8.38;4.90;;;;;;;25.02;26.85;99073.44;1792109;78;21037;-87
2022/04/29 09:41:38;;;;;;;6.55;5.45;;;;;;;22.12;25.52;99091.70;1804248;78;21127;-87
2022/04/29 09:44:04;;;;;;;7.25;5.10;;;;;;;21.16;27.67;99087.41;1795160;77;21036;-87
2022/04/29 09:46:30;;;;;;;9.65;5.20;;;;;;;20.40;28.53;99085.52;1809577;76;20992;-87
2022/04/29 09:49:09;;;;;;;11.83;5.42;;;;;;;19.22;28.84;99087.69;1780804;78;20938;-87
2022/04/29 09:51:45;;;;;;;7.92;5.53;;;;;;;18.97;30.00;99087.74;1770528;78;22320;-87
2022/04/29 09:54:20;;;;;;;14.25;8.90;;;;;;;18.59;30.99;99088.52;1783069;77;21528;-87
2022/04/29 09:57:08;;;;;;;11.53;6.95;;;;;;;18.55;30.26;99084.78;1797520;77;21434;-81
2022/04/29 09:59:44;;;;;;;11.97;8.78;;;;;;;17.86;30.90;99082.52;1790655;78;21092;-88
2022/04/29 10:02:12;;;;;;;11.00;5.90;;;;;;;19.58;30.42;99081.39;1784469;77;21023;-82
2022/04/29 10:04:41;;;;;;;10.53;6.17;;;;;;;19.83;31.06;99080.74;1792521;78;21438;-81
2022/04/29 10:07:09;;;;;;;8.20;5.65;;;;;;;19.75;28.94;99080.69;1791553;76;21574;-86
2022/04/29 10:09:38;;;;;;;11.88;6.05;;;;;;;21.87;26.99;99080.13;1790986;78;21117;-88
2022/04/29 10:12:07;;;;;;;8.23;5.08;;;;;;;22.84;27.28;99083.00;1795954;78;21496;-87
2022/04/29 10:14:36;;;;;;;9.30;6.53;;;;;;;23.88;26.72;99071.09;1808013;77;21851;-87
2022/04/29 10:22:37;;;;;;;6.75;4.85;;;;;;;25.16;22.91;99062.81;1789447;78;21517;-88
2022/04/29 10:25:09;;;;;;;12.82;5.75;;;;;;;25.09;20.92;99058.44;1798323;78;21536;-89
2022/04/29 10:27:39;;;;;;;11.70;6.08;;;;;;;25.26;20.44;99053.98;1794115;78;21496;-89
2022/04/29 10:30:10;;;;;;;14.10;5.25;;;;;;;24.47;21.71;99052.73;1802900;78;21466;-87
2022/04/29 10:33:09;;;;;;;7.65;5.50;;;;;;;22.55;23.38;99056.17;1812086;76;21026;-87
2022/04/29 10:35:49;;;;;;;7.17;5.15;;;;;;;21.27;25.30;99061.73;1825180;77;21205;-88
2022/04/29 10:38:28;;;;;;;11.75;5.08;;;;;;;20.94;26.11;99057.27;1786446;78;20967;-89
2022/04/29 10:41:18;;;;;;;8.60;4.67;;;;;;;20.59;27.08;99049.48;1788916;77;21594;-82
2022/04/29 10:43:56;;;;;;;10.53;5.67;;;;;;;19.52;27.55;99049.62;1803808;77;20996;-82
2022/04/29 10:46:25;;;;;;;11.00;5.87;;;;;;;20.12;28.49;99042.28;1788765;77;21101;-82
2022/04/29 10:48:53;;;;;;;8.58;6.40;;;;;;;19.21;28.37;99041.30;1803249;78;21043;-82
2022/04/29 10:51:31;;;;;;;8.53;6.17;;;;;;;18.67;29.62;99048.03;1776822;77;21704;-82
2022/04/29 10:53:57;;;;;;;13.40;6.40;;;;;;;17.85;30.57;99046.63;1808152;78;21024;-81
2022/04/29 10:56:32;;;;;;;10.43;5.47;;;;;;;17.78;30.56;99043.50;1778193;78;21017;-81
2022/04/29 10:59:14;;;;;;;7.70;5.05;;;;;;;17.69;29.79;99038.67;1784623;79;21069;-81
2022/04/29 11:01:48;;;;;;;7.65;5.75;;;;;;;17.77;30.95;99035.80;1812833;77;21899;-79
2022/04/29 11:04:26;;;;;;;8.73;5.65;;;;;;;17.76;30.06;99034.99;1795547;77;21017;-75
2022/04/29 11:06:52;;;;;;;10.17;6.17;;;;;;;17.79;30.32;99036.89;1791352;78;21022;-75
2022/04/29 11:09:30;;;;;;;9.83;6.42;;;;;;;17.90;30.41;99033.66;1792782;77;21233;-80
2022/04/29 11:11:58;;;;;;;8.95;5.40;;;;;;;17.75;30.43;99027.08;1786513;77;20977;-81
2022/04/29 11:14:24;;;;;;;9.10;5.72;;;;;;;17.23;29.81;99025.48;1791406;77;21038;-81
2022/04/29 11:16:52;;;;;;;11.78;5.95;;;;;;;17.30;30.93;99020.45;1816411;77;21039;-81
2022/04/29 11:19:21;;;;;;;9.65;5.55;;;;;;;17.23;31.87;99010.42;1802338;77;21437;-81
2022/04/29 11:24:45;;;;;;;7.47;5.67;;;;;;;17.38;31.23;99013.73;1817040;77;21043;-81
2022/04/29 11:27:12;;;;;;;8.93;4.87;;;;;;;17.07;30.97;99013.41;1834094;77;21128;-81
2022/04/29 11:29:45;;;;;;;10.10;5.30;;;;;;;17.53;31.28;99007.17;1784576;77;21355;-92
2022/04/29 11:32:12;;;;;;;9.25;5.90;;;;;;;17.59;30.80;99005.95;1783406;77;21442;-89
2022/04/29 11:34:58;;;;;;;10.82;5.85;;;;;;;17.65;30.46;99003.94;1788592;79;21006;-94
2022/04/29 11:37:25;;;;;;;10.38;6.60;;;;;;;17.24;29.77;99001.09;1790371;78;21426;-95
2022/04/29 11:39:54;;;;;;;9.33;5.50;;;;;;;16.84;30.77;98993.25;1794590;78;21093;-94
2022/04/29 11:42:20;;;;;;;10.80;5.72;;;;;;;16.96;30.93;98991.97;1794248;78;21093;-94
2022/04/29 11:44:49;;;;;;;7.58;4.78;;;;;;;16.82;31.11;98991.90;1797466;77;21016;-94
2022/04/29 11:47:16;;;;;;;9.10;6.37;;;;;;;16.62;31.00;98997.09;1785382;78;21044;-93
2022/04/29 11:49:42;;;;;;;9.45;5.95;;;;;;;16.62;31.58;98990.25;1798181;78;21100;-81
2022/04/29 11:52:25;;;;;;;9.90;5.60;;;;;;;16.57;31.43;98987.58;1791976;76;21499;-82
2022/04/29 11:54:57;;;;;;;8.00;5.10;;;;;;;16.44;30.98;98987.77;1783676;78;21018;-81